Time;durP1;ratioP1;P1;durP2;ratioP2;P2;SDS_P1;SDS_P2;PMS_P1;PMS_P2;Temp;Humidity;BMP_temperature;BMP_pressure;BME280_temperature;BME280_humidity;BME280_pressure;Samples;Min_cycle;Max_cycle;Signal;HPM_P1;HPM_P2
2023/03/23 00:01:03;;;;;;;;;;;;;;;18.66;43.75;99837.22;4935990;28;118525;-66
2023/03/23 00:03:31;;;;;;;;;;;;;;;18.65;43.84;99828.22;4932025;28;123630;-61
2023/03/23 00:06:04;;;;;;;;;;;;;;;18.62;43.95;99828.09;4939312;28;98384;-65
2023/03/23 00:08:33;;;;;;;;;;;;;;;18.61;43.78;99835.50;4934010;28;98025;-62
2023/03/23 00:11:00;;;;;;;;;;;;;;;18.60;43.91;99835.84;4933856;28;111433;-65
2023/03/23 00:13:27;;;;;;;;;;;;;;;18.59;43.86;99834.25;4934308;28;101660;-66
2023/03/23 00:15:53;;;;;;;;;;;;;;;18.57;43.67;99828.31;4932423;28;126162;-62
2023/03/23 00:18:22;;;;;;;;;;;;;;;18.56;43.68;99821.28;4934514;28;127660;-62
2023/03/23 00:20:55;;;;;;;;;;;;;;;18.54;43.81;99827.06;4930332;28;99121;-64
2023/03/23 00:23:23;;;;;;;;;;;;;;;18.52;43.71;99823.88;4932041;28;99400;-62
2023/03/23 00:25:53;;;;;;;;;;;;;;;18.52;43.87;99825.81;4932751;28;116760;-62
2023/03/23 00:28:24;;;;;;;;;;;;;;;18.49;43.90;99830.00;4932288;28;97964;-62
2023/03/23 00:31:03;;;;;;;;;;;;;;;18.49;43.80;99830.00;4935617;28;97936;-65
2023/03/23 00:33:33;;;;;;;;;;;;;;;18.48;43.93;99822.97;4931982;28;97963;-62
2023/03/23 00:35:59;;;;;;;;;;;;;;;18.47;43.77;99826.81;4937450;28;98021;-62
2023/03/23 00:38:25;;;;;;;;;;;;;;;18.47;43.99;99823.28;4935172;28;97936;-65
2023/03/23 00:40:51;;;;;;;;;;;;;;;18.45;43.95;99829.06;4937129;28;117871;-65
2023/03/23 00:43:17;;;;;;;;;;;;;;;18.44;43.82;99816.56;4932922;28;127744;-66
2023/03/23 00:45:52;;;;;;;;;;;;;;;18.44;43.85;99815.78;4934665;28;117301;-62
2023/03/23 00:48:24;;;;;;;;;;;;;;;18.42;43.79;99809.84;4932070;28;98838;-66
2023/03/23 00:50:51;;;;;;;;;;;;;;;18.42;44.02;99813.38;4933550;28;98062;-66
2023/03/23 00:53:17;;;;;;;;;;;;;;;18.40;43.50;99804.75;4934829;28;98105;-66
2023/03/23 00:55:43;;;;;;;;;;;;;;;18.39;43.71;99803.94;4934050;28;127944;-62
2023/03/23 00:58:10;;;;;;;;;;;;;;;18.39;43.76;99800.41;4951338;28;127318;-62
2023/03/23 01:00:36;;;;;;;;;;;;;;;18.38;43.85;99791.41;4954149;28;97899;-62
2023/03/23 01:03:02;;;;;;;;;;;;;;;18.36;43.84;99793.69;4950815;28;128586;-62
2023/03/23 01:05:31;;;;;;;;;;;;;;;18.37;43.97;99794.50;4954791;28;128792;-62
2023/03/23 01:07:58;;;;;;;;;;;;;;;18.36;44.02;99790.16;4956470;28;97836;-62
2023/03/23 01:10:26;;;;;;;;;;;;;;;18.35;44.05;99789.38;4953673;28;97879;-66
2023/03/23 01:12:52;;;;;;;;;;;;;;;18.35;43.87;99783.94;4952008;28;98205;-65
2023/03/23 01:15:18;;;;;;;;;;;;;;;18.35;43.85;99785.81;4951489;28;128257;-62
2023/03/23 01:17:44;;;;;;;;;;;;;;;18.33;43.81;99786.19;4949386;28;127857;-66
2023/03/23 01:20:11;;;;;;;;;;;;;;;18.31;43.97;99772.09;4955591;28;97737;-62
2023/03/23 01:22:37;;;;;;;;;;;;;;;18.31;43.86;99772.09;4951117;28;122055;-64
2023/03/23 01:25:04;;;;;;;;;;;;;;;18.31;43.78;99766.63;4952566;28;98699;-66
2023/03/23 01:27:30;;;;;;;;;;;;;;;18.31;43.86;99769.38;4952341;28;98681;-62
2023/03/23 01:29:56;;;;;;;;;;;;;;;18.30;43.93;99766.94;4951838;28;111551;-67
2023/03/23 01:32:22;;;;;;;;;;;;;;;18.30;43.87;99756.84;4950475;28;126857;-62
2023/03/23 01:34:48;;;;;;;;;;;;;;;18.29;43.95;99755.25;4948912;28;128879;-66
2023/03/23 01:37:15;;;;;;;;;;;;;;;18.29;43.79;99757.19;4951617;28;126233;-65
2023/03/23 01:39:41;;;;;;;;;;;;;;;18.28;43.87;99748.19;4953497;28;98545;-62
2023/03/23 01:42:09;;;;;;;;;;;;;;;18.27;43.87;99752.03;4951307;28;98406;-66
2023/03/23 01:44:35;;;;;;;;;;;;;;;18.27;43.89;99757.50;4954033;28;98865;-62
2023/03/23 01:47:00;;;;;;;;;;;;;;;18.28;43.88;99752.88;4952733;28;98154;-62
2023/03/23 01:49:37;;;;;;;;;;;;;;;18.26;44.04;99752.38;4952987;28;119436;-66
2023/03/23 01:52:09;;;;;;;;;;;;;;;18.25;43.92;99754.31;4963941;27;100030;-64
2023/03/23 01:54:36;;;;;;;;;;;;;;;18.24;43.84;99746.50;4949690;28;124461;-66
2023/03/23 01:57:15;;;;;;;;;;;;;;;18.23;44.04;99748.38;4953859;28;97960;-62
2023/03/23 01:59:44;;;;;;;;;;;;;;;18.20;43.97;99751.81;4967576;27;99519;-66
2023/03/23 02:02:11;;;;;;;;;;;;;;;18.21;43.88;99752.59;4953168;28;98290;-65
2023/03/23 02:04:37;;;;;;;;;;;;;;;18.21;43.83;99747.16;4956606;28;98560;-62
2023/03/23 02:07:03;;;;;;;;;;;;;;;18.20;43.92;99749.09;4952644;28;127083;-62
2023/03/23 02:09:29;;;;;;;;;;;;;;;18.19;44.00;99743.94;4984188;27;118686;-62
2023/03/23 02:11:55;;;;;;;;;;;;;;;18.18;43.98;99745.88;4953378;28;99142;-65
2023/03/23 02:14:21;;;;;;;;;;;;;;;18.16;44.05;99745.44;4983309;27;98355;-62
2023/03/23 02:17:08;;;;;;;;;;;;;;;18.16;44.11;99745.44;4957068;28;121438;-66
2023/03/23 02:20:00;;;;;;;;;;;;;;;18.14;43.84;99744.97;4953638;28;114870;-62
2023/03/23 02:22:37;;;;;;;;;;;;;;;18.13;43.76;99735.19;4955547;28;99271;-62
2023/03/23 02:25:24;;;;;;;;;;;;;;;18.13;43.91;99737.91;4951440;28;124170;-66
2023/03/23 02:28:11;;;;;;;;;;;;;;;18.10;44.19;99731.19;4957591;28;97888;-65
2023/03/23 02:30:46;;;;;;;;;;;;;;;18.09;44.09;99735.06;4954134;28;97683;-66
2023/03/23 02:33:28;;;;;;;;;;;;;;;18.08;43.94;99724.50;4964394;27;98375;-65
2023/03/23 02:35:59;;;;;;;;;;;;;;;18.08;43.91;99725.28;4954575;28;99136;-61
2023/03/23 02:38:30;;;;;;;;;;;;;;;18.07;44.04;99728.34;4980656;27;98574;-66
2023/03/23 02:40:56;;;;;;;;;;;;;;;18.06;43.94;99722.09;4950207;28;99283;-62
2023/03/23 02:43:24;;;;;;;;;;;;;;;18.05;44.00;99723.22;4949366;28;113224;-66
2023/03/23 02:45:50;;;;;;;;;;;;;;;18.05;44.20;99723.22;4950405;28;98844;-67
2023/03/23 02:48:17;;;;;;;;;;;;;;;18.04;43.98;99718.91;4951052;28;98075;-65
2023/03/23 02:50:45;;;;;;;;;;;;;;;18.03;43.95;99725.47;4949013;28;98030;-63
2023/03/23 02:53:12;;;;;;;;;;;;;;;18.02;43.90;99729.34;4949117;28;98723;-65
2023/03/23 02:55:41;;;;;;;;;;;;;;;18.01;44.19;99718.78;4947340;28;115353;-65
2023/03/23 02:58:10;;;;;;;;;;;;;;;18.01;44.06;99724.25;4951538;28;98395;-62
2023/03/23 03:00:37;;;;;;;;;;;;;;;18.00;44.03;99720.72;4950471;28;99345;-62
2023/03/23 03:03:04;;;;;;;;;;;;;;;17.99;43.99;99721.03;4953659;28;98409;-62
2023/03/23 03:05:32;;;;;;;;;;;;;;;17.98;44.13;99709.34;4950321;28;98490;-65
2023/03/23 03:08:13;;;;;;;;;;;;;;;17.96;44.10;99705.34;4953382;28;98339;-62
2023/03/23 03:11:02;;;;;;;;;;;;;;;17.97;44.18;99709.69;4949175;28;98212;-65
2023/03/23 03:13:47;;;;;;;;;;;;;;;17.95;44.03;99706.47;4950120;28;98914;-63
2023/03/23 03:16:16;;;;;;;;;;;;;;;17.95;44.15;99703.75;4963349;27;125641;-62
2023/03/23 03:19:15;;;;;;;;;;;;;;;17.94;44.05;99708.41;4953252;28;97923;-65
2023/03/23 03:21:46;;;;;;;;;;;;;;;17.91;43.91;99696.22;4950161;28;98130;-66
2023/03/23 03:24:13;;;;;;;;;;;;;;;17.92;44.18;99705.25;4950338;28;99547;-62
2023/03/23 03:26:45;;;;;;;;;;;;;;;17.93;44.06;99703.31;4950855;28;128256;-66
2023/03/23 03:29:11;;;;;;;;;;;;;;;17.92;44.11;99702.50;4956259;28;97988;-67
2023/03/23 03:31:38;;;;;;;;;;;;;;;17.91;44.09;99707.13;4949525;28;115993;-62
2023/03/23 03:34:04;;;;;;;;;;;;;;;17.92;44.03;99705.25;4981967;27;99271;-66
2023/03/23 03:36:34;;;;;;;;;;;;;;;17.91;44.05;99706.34;4951916;28;119440;-62
2023/03/23 03:39:00;;;;;;;;;;;;;;;17.91;44.23;99707.13;4948788;28;98008;-62
2023/03/23 03:41:26;;;;;;;;;;;;;;;17.90;44.06;99704.75;4949294;28;116913;-66
2023/03/23 03:43:52;;;;;;;;;;;;;;;17.89;43.98;99701.25;4949349;28;126848;-62
2023/03/23 03:46:18;;;;;;;;;;;;;;;17.90;44.03;99704.75;4952566;28;126920;-67
2023/03/23 03:48:44;;;;;;;;;;;;;;;17.89;44.20;99692.28;4954568;28;128085;-66
2023/03/23 03:51:10;;;;;;;;;;;;;;;17.94;44.20;99696.72;4983434;27;98140;-66
2023/03/23 03:53:36;;;;;;;;;;;;;;;18.01;44.18;99691.53;4949173;28;128844;-63
2023/03/23 03:56:02;;;;;;;;;;;;;;;18.08;43.96;99697.22;4957115;28;98958;-66
2023/03/23 03:58:31;;;;;;;;;;;;;;;18.14;44.11;99699.38;4952429;28;111157;-62
2023/03/23 04:01:00;;;;;;;;;;;;;;;18.20;43.93;99699.19;4952743;28;98129;-67
2023/03/23 04:03:26;;;;;;;;;;;;;;;18.26;44.03;99695.09;4952100;28;101632;-63
2023/03/23 04:05:54;;;;;;;;;;;;;;;18.29;44.05;99689.78;4951161;28;99512;-63
2023/03/23 04:08:21;;;;;;;;;;;;;;;18.34;44.13;99697.75;4952351;28;99065;-66
2023/03/23 04:10:48;;;;;;;;;;;;;;;18.37;44.18;99694.34;4950978;28;97834;-66
2023/03/23 04:13:14;;;;;;;;;;;;;;;18.39;43.88;99689.34;4949474;28;99344;-66
2023/03/23 04:15:40;;;;;;;;;;;;;;;18.42;44.05;99681.63;4950463;28;127397;-63
2023/03/23 04:18:06;;;;;;;;;;;;;;;18.43;43.95;99686.75;4952332;28;97968;-66
2023/03/23 04:20:32;;;;;;;;;;;;;;;18.46;44.13;99679.81;4949321;28;117403;-63
2023/03/23 04:23:00;;;;;;;;;;;;;;;18.46;44.13;99672.41;4951408;28;129292;-66
2023/03/23 04:25:27;;;;;;;;;;;;;;;18.48;44.10;99670.16;4949868;28;97852;-63
2023/03/23 04:27:53;;;;;;;;;;;;;;;18.50;44.07;99678.00;4950196;28;100509;-66
2023/03/23 04:30:21;;;;;;;;;;;;;;;18.50;44.12;99675.25;4949787;28;98031;-63
2023/03/23 04:32:50;;;;;;;;;;;;;;;18.51;44.13;99674.13;4950482;28;98013;-65
2023/03/23 04:35:16;;;;;;;;;;;;;;;18.50;44.13;99670.59;4972482;27;100437;-63
2023/03/23 04:37:42;;;;;;;;;;;;;;;18.51;44.17;99683.13;4954821;28;98017;-67
2023/03/23 04:40:11;;;;;;;;;;;;;;;18.51;43.96;99669.50;4954913;28;98317;-66
2023/03/23 04:42:37;;;;;;;;;;;;;;;18.51;43.99;99668.66;4956989;28;98825;-63
2023/03/23 04:45:05;;;;;;;;;;;;;;;18.50;44.20;99672.53;4950981;28;102785;-66
2023/03/23 04:47:32;;;;;;;;;;;;;;;18.50;44.06;99678.00;4955838;28;98459;-63
2023/03/23 04:49:58;;;;;;;;;;;;;;;18.51;44.20;99668.66;4954327;28;101097;-67
2023/03/23 04:52:28;;;;;;;;;;;;;;;18.50;44.31;99675.25;4953079;28;99125;-66
2023/03/23 04:54:55;;;;;;;;;;;;;;;18.50;44.13;99669.81;4956504;28;98916;-66
2023/03/23 04:57:22;;;;;;;;;;;;;;;18.49;44.13;99671.75;4956550;28;97972;-66
2023/03/23 04:59:48;;;;;;;;;;;;;;;18.49;44.13;99668.22;4950515;28;115897;-67
2023/03/23 05:02:14;;;;;;;;;;;;;;;18.48;44.22;99661.97;4956097;28;98009;-63
2023/03/23 05:04:40;;;;;;;;;;;;;;;18.48;44.26;99664.69;4955570;28;128163;-66
2023/03/23 05:07:07;;;;;;;;;;;;;;;18.49;43.98;99662.75;4952070;27;98693;-66
2023/03/23 05:09:33;;;;;;;;;;;;;;;18.47;44.16;99665.84;4954095;28;98245;-66
2023/03/23 05:12:04;;;;;;;;;;;;;;;18.47;43.87;99665.84;4953982;28;98210;-65
2023/03/23 05:14:30;;;;;;;;;;;;;;;18.48;44.13;99663.91;4954227;28;107555;-63
2023/03/23 05:16:56;;;;;;;;;;;;;;;18.49;44.20;99671.75;4956568;28;99290;-67
2023/03/23 05:19:22;;;;;;;;;;;;;;;18.49;43.99;99676.41;4956499;28;117745;-63
2023/03/23 05:21:48;;;;;;;;;;;;;;;18.50;44.14;99683.44;4954289;28;126855;-63
2023/03/23 05:24:14;;;;;;;;;;;;;;;18.50;44.24;99686.19;4957553;28;117133;-66
2023/03/23 05:26:40;;;;;;;;;;;;;;;18.51;44.05;99682.31;4955261;28;127560;-63
2023/03/23 05:29:06;;;;;;;;;;;;;;;18.51;44.08;99685.03;4957325;28;97837;-66
2023/03/23 05:31:32;;;;;;;;;;;;;;;18.53;44.11;99671.88;4953778;28;98671;-63
2023/03/23 05:33:58;;;;;;;;;;;;;;;18.54;44.03;99670.72;4953080;28;128146;-66
2023/03/23 05:36:24;;;;;;;;;;;;;;;18.55;44.02;99680.50;4956568;28;98046;-65
2023/03/23 05:38:53;;;;;;;;;;;;;;;18.56;44.06;99677.44;4959401;28;109587;-66
2023/03/23 05:41:19;;;;;;;;;;;;;;;18.58;44.18;99677.88;4955340;28;98831;-63
2023/03/23 05:43:44;;;;;;;;;;;;;;;18.60;44.17;99691.22;4952995;28;128365;-63
2023/03/23 05:46:10;;;;;;;;;;;;;;;18.60;44.00;99689.28;4952880;28;127601;-67
2023/03/23 05:48:36;;;;;;;;;;;;;;;18.62;44.14;99686.19;4951288;28;107912;-63
2023/03/23 05:51:02;;;;;;;;;;;;;;;18.63;43.91;99685.06;4952549;28;98853;-63
2023/03/23 05:53:30;;;;;;;;;;;;;;;18.65;44.02;99683.59;4955912;28;119006;-63
2023/03/23 05:55:59;;;;;;;;;;;;;;;18.67;43.99;99686.00;4951753;28;98282;-66
2023/03/23 05:58:25;;;;;;;;;;;;;;;18.69;44.17;99685.63;4953870;28;98037;-63
2023/03/23 06:00:51;;;;;;;;;;;;;;;18.71;44.05;99689.66;4954348;28;126106;-66
2023/03/23 06:03:17;;;;;;;;;;;;;;;18.74;43.94;99683.50;4957017;28;128131;-63
2023/03/23 06:05:44;;;;;;;;;;;;;;;18.77;43.89;99677.38;4953145;28;98343;-63
2023/03/23 06:08:11;;;;;;;;;;;;;;;18.80;43.98;99675.91;4955588;28;98055;-63
2023/03/23 06:10:37;;;;;;;;;;;;;;;18.81;43.72;99682.94;4954973;28;99223;-63
2023/03/23 06:13:03;;;;;;;;;;;;;;;18.81;44.07;99680.22;4952745;28;127284;-63
2023/03/23 06:15:31;;;;;;;;;;;;;;;18.82;43.94;99679.88;4954184;28;126327;-63
2023/03/23 06:18:03;;;;;;;;;;;;;;;18.84;43.83;99674.06;4952713;28;98105;-66
2023/03/23 06:20:30;;;;;;;;;;;;;;;18.87;43.96;99662.47;4954740;28;98119;-67
2023/03/23 06:22:56;;;;;;;;;;;;;;;18.92;43.85;99669.63;4952974;28;99053;-66
2023/03/23 06:25:22;;;;;;;;;;;;;;;18.98;43.91;99673.72;4952924;28;98530;-66
2023/03/23 06:27:48;;;;;;;;;;;;;;;19.03;43.85;99674.28;4952976;28;97987;-64
2023/03/23 06:30:17;;;;;;;;;;;;;;;19.11;43.82;99678.03;4952639;28;127349;-66
2023/03/23 06:32:45;;;;;;;;;;;;;;;19.18;43.53;99670.06;4953853;28;98473;-63
2023/03/23 06:35:11;;;;;;;;;;;;;;;19.27;43.60;99675.41;4954811;28;97991;-67
2023/03/23 06:37:37;;;;;;;;;;;;;;;19.34;43.48;99675.63;4952423;28;98244;-66
2023/03/23 06:40:08;;;;;;;;;;;;;;;19.44;43.42;99664.19;4951097;28;127126;-63
2023/03/23 06:42:34;;;;;;;;;;;;;;;19.60;43.27;99670.53;4958101;28;98425;-66
2023/03/23 06:45:00;;;;;;;;;;;;;;;19.72;43.20;99671.66;4953146;28;128374;-63
2023/03/23 06:47:29;;;;;;;;;;;;;;;19.75;43.40;99684.63;4956048;28;98091;-67
2023/03/23 06:49:56;;;;;;;;;;;;;;;19.74;43.34;99686.59;4954370;28;98227;-66
2023/03/23 06:52:22;;;;;;;;;;;;;;;19.73;43.48;99692.38;4950903;28;129017;-66
2023/03/23 06:54:51;;;;;;;;;;;;;;;19.72;43.50;99693.53;4950986;28;125803;-64
2023/03/23 06:57:17;;;;;;;;;;;;;;;19.71;43.48;99697.41;4951735;28;98172;-63
2023/03/23 06:59:43;;;;;;;;;;;;;;;19.75;43.65;99699.09;4951992;28;121132;-67
2023/03/23 07:02:11;;;;;;;;;;;;;;;19.87;43.45;99701.00;4951296;28;99138;-66
2023/03/23 07:04:38;;;;;;;;;;;;;;;19.96;43.27;99698.91;4954264;28;97908;-63
2023/03/23 07:07:04;;;;;;;;;;;;;;;20.00;43.43;99699.81;4953266;28;99432;-63
2023/03/23 07:09:31;;;;;;;;;;;;;;;19.99;43.39;99703.69;4955768;28;98525;-67
2023/03/23 07:11:56;;;;;;;;;;;;;;;20.01;43.50;99708.81;4950579;28;98987;-63
2023/03/23 07:14:22;;;;;;;;;;;;;;;20.06;43.36;99714.81;4955686;28;126074;-63
2023/03/23 07:16:48;;;;;;;;;;;;;;;20.15;43.22;99719.34;4951608;28;97908;-66
2023/03/23 07:19:14;;;;;;;;;;;;;;;20.34;43.13;99714.00;4952890;28;98476;-67
2023/03/23 07:21:40;;;;;;;;;;;;;;;20.63;42.82;99709.28;4952493;28;98942;-64
2023/03/23 07:24:11;;;;;;;;;;;;;;;20.78;42.83;99708.50;4954306;28;104435;-63
2023/03/23 07:26:37;;;;;;;;;;;;;;;20.76;42.89;99717.06;4951485;28;98225;-63
2023/03/23 07:29:03;;;;;;;;;;;;;;;20.80;43.01;99723.44;4954987;28;98403;-64
2023/03/23 07:31:29;;;;;;;;;;;;;;;20.83;42.98;99716.47;4954467;28;131206;-63
2023/03/23 07:33:56;;;;;;;;;;;;;;;20.86;43.01;99723.16;4952495;28;98593;-65
2023/03/23 07:36:22;;;;;;;;;;;;;;;20.88;43.00;99718.91;4953310;28;98175;-64
2023/03/23 07:38:48;;;;;;;;;;;;;;;20.89;43.08;99731.47;4948694;28;125796;-63
2023/03/23 07:41:14;;;;;;;;;;;;;;;20.83;43.24;99735.63;4950069;28;98865;-66
2023/03/23 07:43:41;;;;;;;;;;;;;;;20.79;43.26;99732.00;4948108;28;127485;-63
2023/03/23 07:46:06;;;;;;;;;;;;;;;20.81;43.22;99737.91;4949489;28;98148;-66
2023/03/23 07:48:32;;;;;;;;;;;;;;;20.81;43.32;99746.91;4947789;28;127731;-63
2023/03/23 07:50:59;;;;;;;;;;;;;;;20.82;43.34;99759.47;4951272;28;126553;-64
2023/03/23 07:53:25;;;;;;;;;;;;;;;20.83;43.26;99757.53;4968257;27;111793;-67
2023/03/23 07:55:51;;;;;;;;;;;;;;;20.87;43.32;99763.06;4953224;28;98900;-63
2023/03/23 07:58:19;;;;;;;;;;;;;;;20.92;43.22;99771.06;4949696;28;98931;-67
2023/03/23 08:00:46;;;;;;;;;;;;;;;20.95;43.29;99773.09;4953289;28;98481;-66
2023/03/23 08:03:12;;;;;;;;;;;;;;;20.94;43.20;99776.97;4950165;28;98538;-67
2023/03/23 08:05:38;;;;;;;;;;;;;;;20.89;43.31;99777.22;4953865;28;98403;-66
2023/03/23 08:08:04;;;;;;;;;;;;;;;20.87;43.35;99790.47;4948556;28;98295;-66
2023/03/23 08:10:30;;;;;;;;;;;;;;;20.83;43.30;99795.88;4952828;28;129127;-64
2023/03/23 08:12:56;;;;;;;;;;;;;;;20.82;43.31;99792.31;4954555;28;98652;-66
2023/03/23 08:15:22;;;;;;;;;;;;;;;20.87;43.39;99795.94;4955812;28;97803;-64
2023/03/23 08:17:50;;;;;;;;;;;;;;;20.90;43.44;99789.78;4955695;28;99126;-67
2023/03/23 08:20:18;;;;;;;;;;;;;;;20.88;43.31;99787.41;4956389;28;98861;-65
2023/03/23 08:22:45;;;;;;;;;;;;;;;20.83;43.32;99788.47;4954350;28;97843;-66
2023/03/23 08:25:12;;;;;;;;;;;;;;;20.81;43.46;99793.47;4957876;28;98822;-67
2023/03/23 08:27:43;;;;;;;;;;;;;;;20.81;43.47;99787.22;4952280;28;103471;-64
2023/03/23 08:30:10;;;;;;;;;;;;;;;20.85;43.43;99793.56;4953972;28;98219;-67
2023/03/23 08:32:36;;;;;;;;;;;;;;;20.86;43.38;99789.66;4957003;28;98000;-67
2023/03/23 08:35:02;;;;;;;;;;;;;;;20.88;43.41;99800.28;4957588;28;110373;-66
2023/03/23 08:37:29;;;;;;;;;;;;;;;20.93;43.34;99802.75;4958230;28;98386;-65
2023/03/23 08:39:55;;;;;;;;;;;;;;;20.98;43.30;99797.00;4956160;28;98491;-64
2023/03/23 08:42:22;;;;;;;;;;;;;;;20.97;43.26;99801.69;4956413;28;115025;-67
2023/03/23 08:44:48;;;;;;;;;;;;;;;20.94;43.41;99796.13;4954701;28;98064;-66
2023/03/23 08:47:14;;;;;;;;;;;;;;;20.90;43.39;99793.28;4980168;27;99107;-67
2023/03/23 08:49:42;;;;;;;;;;;;;;;20.88;43.50;99795.59;4956645;28;126849;-66
2023/03/23 08:52:09;;;;;;;;;;;;;;;20.86;43.43;99802.56;4955109;28;98094;-64
2023/03/23 08:54:34;;;;;;;;;;;;;;;20.87;43.49;99804.97;4955161;28;97865;-66
2023/03/23 08:57:01;;;;;;;;;;;;;;;20.89;43.51;99804.63;4951106;28;99202;-64
2023/03/23 08:59:27;;;;;;;;;;;;;;;20.87;43.49;99806.91;4955156;28;98107;-66
2023/03/23 09:01:53;;;;;;;;;;;;;;;20.86;43.51;99811.59;4954699;28;127298;-64
2023/03/23 09:04:19;;;;;;;;;;;;;;;20.87;43.50;99806.91;4955506;28;115343;-66
2023/03/23 09:06:45;;;;;;;;;;;;;;;20.89;43.43;99808.16;4951942;28;108443;-66
2023/03/23 09:09:12;;;;;;;;;;;;;;;20.90;43.50;99811.69;4955380;28;98813;-66
2023/03/23 09:11:38;;;;;;;;;;;;;;;20.87;43.64;99804.97;4950929;28;98106;-66
2023/03/23 09:14:04;;;;;;;;;;;;;;;20.83;43.47;99810.38;4952506;28;97903;-67
2023/03/23 09:16:31;;;;;;;;;;;;;;;20.82;43.61;99797.78;4954744;28;98860;-66
2023/03/23 09:18:57;;;;;;;;;;;;;;;20.83;43.65;99801.34;4956049;28;98636;-66
2023/03/23 09:21:25;;;;;;;;;;;;;;;20.89;43.46;99810.88;4954801;28;98037;-66
2023/03/23 09:23:51;;;;;;;;;;;;;;;21.00;43.40;99805.69;4955143;28;99170;-64
2023/03/23 09:26:17;;;;;;;;;;;;;;;21.13;43.24;99809.91;4958438;28;98240;-66
2023/03/23 09:28:44;;;;;;;;;;;;;;;21.29;43.10;99805.22;4953755;28;128392;-66
2023/03/23 09:31:10;;;;;;;;;;;;;;;21.46;42.94;99806.84;4952133;28;97983;-64
2023/03/23 09:33:37;;;;;;;;;;;;;;;21.66;42.73;99799.47;4955412;28;98411;-66
2023/03/23 09:36:04;;;;;;;;;;;;;;;21.81;42.74;99793.16;4951396;28;113810;-64
2023/03/23 09:38:33;;;;;;;;;;;;;;;21.86;42.69;99799.50;4951823;27;98314;-66
2023/03/23 09:41:11;;;;;;;;;;;;;;;21.83;42.97;99811.19;4953091;28;98093;-66
2023/03/23 09:43:56;;;;;;;;;;;;;;;21.77;42.98;99811.47;4955515;28;115420;-64
2023/03/23 09:46:40;;;;;;;;;;;;;;;21.75;43.27;99816.50;4937860;28;99151;-64
2023/03/23 09:49:22;;;;;;;;;;;;;;;21.79;43.27;99809.16;4950413;28;98118;-66
2023/03/23 09:51:51;;;;;;;;;;;;;;;21.90;43.11;99811.34;4941064;28;98163;-63
2023/03/23 09:54:36;;;;;;;;;;;;;;;22.03;42.84;99797.13;4955756;28;98099;-65
2023/03/23 09:57:02;;;;;;;;;;;;;;;22.17;42.70;99791.19;4954888;28;99070;-63
2023/03/23 09:59:35;;;;;;;;;;;;;;;22.19;42.91;99797.09;4949316;28;98482;-64
2023/03/23 10:02:17;;;;;;;;;;;;;;;22.18;43.08;99787.28;4949494;28;99736;-64
2023/03/23 10:04:47;;;;;;;;;;;;;;;22.16;42.87;99786.03;4968179;27;98032;-64
2023/03/23 10:07:16;;;;;;;;;;;;;;;22.19;43.05;99788.84;4956283;28;98435;-63
2023/03/23 10:09:43;;;;;;;;;;;;;;;22.25;43.00;99781.94;4951809;28;128471;-66
2023/03/23 10:12:16;;;;;;;;;;;;;;;22.29;42.90;99790.22;4954095;28;105930;-67
2023/03/23 10:15:08;;;;;;;;;;;;;;;22.39;42.72;99789.63;4953116;28;100023;-64
2023/03/23 10:17:37;;;;;;;;;;;;;;;22.48;42.89;99787.47;4952074;28;98034;-66
2023/03/23 10:20:08;;;;;;;;;;;;;;;22.62;42.56;99789.66;4950356;28;115883;-64
2023/03/23 10:22:37;;;;;;;;;;;;;;;22.83;42.56;99797.50;4955591;28;98118;-66
2023/03/23 10:25:15;;;;;;;;;;;;;;;23.14;41.97;99785.50;4954634;28;98046;-64
2023/03/23 10:28:00;;;;;;;;;;;;;;;23.29;42.18;99792.00;4954458;28;100043;-66
2023/03/23 10:30:38;;;;;;;;;;;;;;;23.33;42.42;99789.31;4954981;28;98236;-64
2023/03/23 10:33:13;;;;;;;;;;;;;;;23.38;42.37;99786.25;4965164;28;98284;-67
2023/03/23 10:35:46;;;;;;;;;;;;;;;23.44;42.54;99790.28;4951947;28;97721;-64
2023/03/23 10:38:18;;;;;;;;;;;;;;;23.48;42.41;99800.16;4949989;28;101346;-64
2023/03/23 10:40:48;;;;;;;;;;;;;;;23.70;42.35;99787.56;4950046;28;123589;-64
2023/03/23 10:43:14;;;;;;;;;;;;;;;24.15;41.85;99784.97;4967419;28;123388;-64
2023/03/23 10:45:40;;;;;;;;;;;;;;;24.61;41.30;99785.53;4949410;28;97785;-67
2023/03/23 10:48:29;;;;;;;;;;;;;;;24.86;41.20;99790.47;4953121;28;127138;-67
2023/03/23 10:50:57;;;;;;;;;;;;;;;25.10;41.14;99778.91;4948936;28;97860;-67
2023/03/23 10:53:29;;;;;;;;;;;;;;;25.07;41.57;99781.59;4955209;28;98411;-64
2023/03/23 10:55:56;;;;;;;;;;;;;;;25.01;41.90;99783.13;4940185;28;104912;-64
2023/03/23 10:58:29;;;;;;;;;;;;;;;24.80;42.13;99775.44;4955883;28;98403;-67
2023/03/23 11:00:57;;;;;;;;;;;;;;;24.58;42.49;99780.75;4952696;28;119261;-67
2023/03/23 11:03:34;;;;;;;;;;;;;;;24.40;42.53;99777.81;4950207;27;98659;-64
2023/03/23 11:06:03;;;;;;;;;;;;;;;24.22;42.82;99774.06;4952384;28;98102;-67
2023/03/23 11:08:32;;;;;;;;;;;;;;;24.09;42.81;99781.78;4953393;28;98484;-66
2023/03/23 11:11:16;;;;;;;;;;;;;;;23.96;42.86;99781.19;4956051;28;98393;-65
2023/03/23 11:13:44;;;;;;;;;;;;;;;23.80;43.35;99768.81;4955736;28;98404;-63
2023/03/23 11:16:11;;;;;;;;;;;;;;;23.66;43.38;99775.72;4952969;28;97989;-64
2023/03/23 11:18:42;;;;;;;;;;;;;;;23.53;43.44;99771.53;4964451;27;99058;-64
2023/03/23 11:21:10;;;;;;;;;;;;;;;23.41;43.51;99771.75;4953063;28;98651;-66
2023/03/23 11:23:41;;;;;;;;;;;;;;;23.32;43.72;99782.25;4955855;28;98647;-64
2023/03/23 11:26:16;;;;;;;;;;;;;;;23.24;43.41;99784.88;4949506;28;98199;-64
2023/03/23 11:28:49;;;;;;;;;;;;;;;23.20;43.53;99786.00;4953574;28;98276;-66
2023/03/23 11:31:16;;;;;;;;;;;;;;;23.19;43.30;99792.66;4939111;28;98361;-66
2023/03/23 11:33:52;;;;;;;;;;;;;;;23.17;43.44;99798.50;4953676;28;98072;-67
2023/03/23 11:36:29;;;;;;;;;;;;;;;23.13;43.33;99796.88;4949242;28;110310;-65
2023/03/23 11:38:58;;;;;;;;;;;;;;;23.10;43.38;99794.84;4980626;27;98330;-67
2023/03/23 11:41:30;;;;;;;;;;;;;;;23.08;43.54;99789.72;4953944;28;98348;-66
2023/03/23 11:43:56;;;;;;;;;;;;;;;23.06;43.20;99788.50;4954436;28;98071;-64
2023/03/23 11:46:59;;;;;;;;;;;;;;;23.03;43.35;99798.28;4955144;28;98060;-67
2023/03/23 11:49:36;;;;;;;;;;;;;;;22.96;43.35;99785.22;4950038;28;98070;-67
2023/03/23 11:52:10;;;;;;;;;;;;;;;22.88;43.53;99777.97;4953901;28;98537;-64
2023/03/23 11:55:02;;;;;;;;;;;;;;;22.82;43.69;99789.63;4969199;28;99118;-64
2023/03/23 11:57:30;;;;;;;;;;;;;;;22.72;43.76;99782.81;4957397;28;98017;-66
2023/03/23 12:00:00;;;;;;;;;;;;;;;22.63;43.94;99784.97;4952642;28;99558;-64
2023/03/23 12:02:49;;;;;;;;;;;;;;;22.58;43.71;99788.03;4957268;28;99126;-66
2023/03/23 12:05:15;;;;;;;;;;;;;;;22.49;43.69;99782.78;4978881;27;98075;-64
2023/03/23 12:08:21;;;;;;;;;;;;;;;22.43;43.87;99793.25;4954036;28;99872;-64
2023/03/23 12:11:05;;;;;;;;;;;;;;;22.39;43.80;99786.09;4954449;28;98435;-64
2023/03/23 12:13:34;;;;;;;;;;;;;;;22.38;43.77;99790.78;4969161;27;98434;-66
2023/03/23 12:16:18;;;;;;;;;;;;;;;22.36;43.73;99787.63;4954370;28;98190;-64
2023/03/23 12:19:08;;;;;;;;;;;;;;;22.38;43.60;99795.50;4984502;27;117483;-64
2023/03/23 12:21:48;;;;;;;;;;;;;;;22.40;43.53;99787.66;4968169;27;114231;-67
2023/03/23 12:24:31;;;;;;;;;;;;;;;22.43;43.70;99795.19;4950831;28;98589;-66
2023/03/23 12:26:59;;;;;;;;;;;;;;;22.41;43.52;99794.78;4956090;28;98453;-66
2023/03/23 12:29:35;;;;;;;;;;;;;;;22.39;43.71;99800.59;4984700;27;98060;-66
2023/03/23 12:32:27;;;;;;;;;;;;;;;22.41;43.52;99775.56;4952606;28;104441;-66
2023/03/23 12:35:09;;;;;;;;;;;;;;;22.42;43.79;99793.63;4952950;28;98890;-67
2023/03/23 12:37:46;;;;;;;;;;;;;;;22.45;43.49;99784.66;4966878;27;99578;-64
2023/03/23 12:40:29;;;;;;;;;;;;;;;22.49;43.41;99782.78;4950912;28;118517;-64
2023/03/23 12:42:58;;;;;;;;;;;;;;;22.52;43.33;99774.59;4954599;28;99052;-67
2023/03/23 12:45:47;;;;;;;;;;;;;;;22.58;43.35;99777.81;4957346;28;98228;-64
2023/03/23 12:48:16;;;;;;;;;;;;;;;22.67;43.41;99777.59;4952555;28;98123;-64
2023/03/23 12:50:58;;;;;;;;;;;;;;;22.73;43.12;99773.41;4953709;28;99808;-63
2023/03/23 12:53:30;;;;;;;;;;;;;;;22.84;43.09;99768.88;4967330;27;98541;-64
2023/03/23 12:56:13;;;;;;;;;;;;;;;22.93;43.16;99768.66;4956165;28;98274;-66